createdAt,value
2022-12-23T00:00:43.425Z,29.17
2022-12-23T00:03:10.360Z,36.20
2022-12-23T00:05:38.778Z,42.97
2022-12-23T00:08:06.132Z,35.45
2022-12-23T00:10:33.622Z,25.17
2022-12-23T00:13:18.939Z,26.80
2022-12-23T00:15:45.741Z,27.77
2022-12-23T00:18:12.517Z,29.02
2022-12-23T00:20:39.285Z,32.63
2022-12-23T00:23:06.755Z,34.33
2022-12-23T00:25:41.219Z,29.50
2022-12-23T00:28:14.238Z,30.63
2022-12-23T00:31:01.113Z,39.33
2022-12-23T00:33:38.807Z,24.63
2022-12-23T00:36:32.180Z,27.95
2022-12-23T00:39:18.328Z,28.00
2022-12-23T00:42:04.155Z,25.88
2022-12-23T00:44:31.347Z,30.67
2022-12-23T00:46:58.241Z,31.83
2022-12-23T00:49:43.541Z,28.83
2022-12-23T00:52:13.355Z,28.10
2022-12-23T00:54:40.610Z,28.75
2022-12-23T00:57:07.426Z,23.70
2022-12-23T00:59:34.334Z,28.40
2022-12-23T01:02:19.810Z,27.65
2022-12-23T01:05:05.115Z,30.35
2022-12-23T01:07:31.983Z,22.65
2022-12-23T01:09:58.764Z,25.05
2022-12-23T01:12:26.019Z,29.42
2022-12-23T01:14:52.832Z,28.33
2022-12-23T01:17:19.661Z,26.88
2022-12-23T01:19:46.481Z,23.45
2022-12-23T01:22:13.414Z,30.33
2022-12-23T01:24:40.117Z,24.52
2022-12-23T01:27:06.873Z,23.33
2022-12-23T01:29:33.768Z,22.70
2022-12-23T01:32:00.581Z,24.08
2022-12-23T01:34:32.589Z,20.70
2022-12-23T01:37:03.160Z,19.67
2022-12-23T01:39:30.048Z,25.08
2022-12-23T01:42:15.243Z,25.38
2022-12-23T01:45:02.518Z,22.27
2022-12-23T01:47:40.685Z,27.67
2022-12-23T01:50:42.606Z,19.83
2022-12-23T01:53:17.842Z,19.65
2022-12-23T01:55:59.446Z,19.67
2022-12-23T02:01:16.351Z,21.98
2022-12-23T02:03:44.853Z,17.95
2022-12-23T02:06:32.599Z,15.10
2022-12-23T02:09:17.759Z,16.73
2022-12-23T02:12:06.210Z,12.98
2022-12-23T02:15:25.265Z,38.40
2022-12-23T02:18:10.543Z,17.67
2022-12-23T02:20:59.552Z,15.85
2022-12-23T02:23:47.499Z,13.73
2022-12-23T02:26:38.536Z,13.30
2022-12-23T02:29:24.083Z,12.93
2022-12-23T02:32:02.802Z,11.30
2022-12-23T02:34:57.427Z,10.75
2022-12-23T02:37:52.275Z,11.38
2022-12-23T02:40:31.061Z,13.00
2022-12-23T02:43:06.673Z,10.23
2022-12-23T02:45:42.190Z,10.30
2022-12-23T02:48:12.822Z,12.13
2022-12-23T02:50:43.309Z,13.43
2022-12-23T02:53:51.107Z,14.93
2022-12-23T02:56:20.315Z,11.98
2022-12-23T02:59:01.841Z,10.77
2022-12-23T03:03:58.235Z,10.88
2022-12-23T03:06:38.753Z,11.52
2022-12-23T03:09:05.914Z,15.02
2022-12-23T03:11:41.830Z,12.18
2022-12-23T03:14:36.462Z,14.20
2022-12-23T03:17:23.108Z,9.50
2022-12-23T03:20:14.163Z,15.57
2022-12-23T03:22:47.058Z,15.30
2022-12-23T03:25:24.301Z,11.90
2022-12-23T03:28:13.810Z,14.18
2022-12-23T03:30:45.478Z,14.48
2022-12-23T03:33:35.511Z,9.90
2022-12-23T03:36:16.038Z,12.68
2022-12-23T03:38:45.301Z,9.10
2022-12-23T03:41:18.432Z,11.88
2022-12-23T03:43:54.924Z,10.35
2022-12-23T03:46:37.190Z,15.48
2022-12-23T03:49:09.197Z,8.88
2022-12-23T03:51:49.128Z,13.27
2022-12-23T03:54:25.159Z,11.35
2022-12-23T03:57:01.603Z,12.18
2022-12-23T03:59:33.617Z,13.10
2022-12-23T04:02:04.090Z,13.18
2022-12-23T04:04:51.050Z,15.03
2022-12-23T04:07:32.336Z,15.57
2022-12-23T04:10:00.234Z,10.52
2022-12-23T04:12:28.373Z,13.50
2022-12-23T04:14:55.262Z,13.00
2022-12-23T04:17:22.698Z,13.30
2022-12-23T04:19:49.548Z,10.13
2022-12-23T04:22:16.641Z,12.38
2022-12-23T04:24:43.842Z,15.85
2022-12-23T04:27:13.939Z,12.35
2022-12-23T04:29:40.851Z,10.15
2022-12-23T04:32:08.073Z,10.95
2022-12-23T04:34:35.053Z,11.65
2022-12-23T04:37:02.032Z,10.73
2022-12-23T04:39:28.840Z,9.18
2022-12-23T04:41:55.620Z,10.15
2022-12-23T04:44:22.452Z,15.77
2022-12-23T04:46:49.381Z,11.50
2022-12-23T04:49:16.254Z,11.68
2022-12-23T04:51:43.004Z,15.90
2022-12-23T04:54:09.821Z,9.45
2022-12-23T04:56:36.631Z,8.30
2022-12-23T04:59:04.471Z,11.65
2022-12-23T05:01:31.551Z,11.00
2022-12-23T05:03:58.518Z,12.27
2022-12-23T05:06:25.334Z,8.57
2022-12-23T05:08:52.226Z,10.20
2022-12-23T05:11:19.074Z,13.32
2022-12-23T05:13:45.843Z,53.88
2022-12-23T05:16:13.323Z,12.43
2022-12-23T05:18:40.108Z,9.90
2022-12-23T05:21:06.888Z,12.10
2022-12-23T05:23:33.760Z,16.77
2022-12-23T05:26:00.602Z,15.50
2022-12-23T05:28:27.452Z,14.85
2022-12-23T05:31:01.745Z,14.50
2022-12-23T05:33:28.959Z,16.98
2022-12-23T05:35:56.052Z,15.07
2022-12-23T05:38:23.221Z,10.55
2022-12-23T05:40:50.158Z,13.40
2022-12-23T05:43:17.495Z,14.98
2022-12-23T05:45:44.811Z,8.18
2022-12-23T05:48:11.683Z,8.40
2022-12-23T05:50:39.430Z,9.25
2022-12-23T05:53:07.168Z,8.60
2022-12-23T05:55:34.924Z,7.10
2022-12-23T05:58:01.852Z,8.80
2022-12-23T06:00:29.379Z,6.53
2022-12-23T06:02:56.366Z,8.00
2022-12-23T06:05:23.380Z,6.20
2022-12-23T06:07:50.224Z,6.00
2022-12-23T06:10:17.012Z,7.35
2022-12-23T06:12:43.801Z,5.32
2022-12-23T06:15:11.150Z,5.28
2022-12-23T06:17:45.469Z,5.60
2022-12-23T06:20:19.931Z,6.78
2022-12-23T06:22:47.459Z,5.70
2022-12-23T06:25:14.366Z,4.95
2022-12-23T06:27:41.254Z,5.93
2022-12-23T06:30:08.632Z,8.20
2022-12-23T06:32:38.515Z,6.15
2022-12-23T06:35:06.795Z,6.95
2022-12-23T06:37:33.750Z,4.20
2022-12-23T06:40:00.532Z,3.38
2022-12-23T06:42:27.317Z,3.90
2022-12-23T06:44:54.091Z,3.45
2022-12-23T06:47:20.958Z,4.75
2022-12-23T06:49:47.740Z,3.22
2022-12-23T06:52:14.507Z,4.55
2022-12-23T06:54:41.284Z,5.65
2022-12-23T06:57:08.061Z,2.88
2022-12-23T06:59:34.838Z,4.07
2022-12-23T07:02:01.925Z,4.10
2022-12-23T07:04:28.776Z,3.72
2022-12-23T07:06:55.522Z,3.22
2022-12-23T07:09:22.418Z,3.22
2022-12-23T07:11:49.210Z,3.40
2022-12-23T07:14:15.958Z,2.83
2022-12-23T07:16:42.813Z,3.97
2022-12-23T07:19:09.637Z,7.30
2022-12-23T07:21:36.910Z,3.85
2022-12-23T07:24:03.934Z,3.50
2022-12-23T07:26:30.761Z,6.43
2022-12-23T07:28:57.650Z,7.35
2022-12-23T07:31:24.633Z,4.20
2022-12-23T07:33:51.428Z,4.07
2022-12-23T07:36:18.200Z,3.95
2022-12-23T07:38:45.107Z,4.15
2022-12-23T07:41:11.937Z,6.28
2022-12-23T07:43:38.753Z,3.80
2022-12-23T07:46:09.817Z,4.07
2022-12-23T07:48:36.789Z,4.57
2022-12-23T07:51:04.721Z,6.50
2022-12-23T07:53:31.588Z,5.13
2022-12-23T07:55:58.409Z,5.00
2022-12-23T07:58:25.418Z,2.20
2022-12-23T08:00:59.736Z,4.28
2022-12-23T08:03:26.599Z,6.68
2022-12-23T08:06:05.294Z,2.35
2022-12-23T08:08:32.864Z,2.53
2022-12-23T08:11:01.760Z,2.78
2022-12-23T08:13:28.990Z,1.55
2022-12-23T08:15:57.699Z,4.25
2022-12-23T08:18:27.391Z,1.65
2022-12-23T08:20:59.235Z,1.35
2022-12-23T08:23:27.275Z,2.72
2022-12-23T08:26:11.510Z,1.00
2022-12-23T08:28:39.695Z,1.02
2022-12-23T08:31:21.541Z,1.10
2022-12-23T08:33:52.087Z,2.20
2022-12-23T08:36:25.237Z,2.30
2022-12-23T08:38:54.719Z,5.53
2022-12-23T08:41:25.812Z,1.73
2022-12-23T08:43:53.309Z,3.78
2022-12-23T08:46:20.861Z,1.40
2022-12-23T08:48:49.830Z,1.25
2022-12-23T08:51:18.413Z,0.90
2022-12-23T08:53:45.818Z,3.17
2022-12-23T08:56:15.799Z,5.78
2022-12-23T08:58:45.694Z,3.42
2022-12-23T09:01:15.039Z,0.55
2022-12-23T09:03:43.111Z,5.60
2022-12-23T09:06:12.792Z,3.05
2022-12-23T09:08:40.647Z,1.60
2022-12-23T09:11:15.906Z,3.65
2022-12-23T09:13:43.739Z,4.85
2022-12-23T09:16:11.609Z,4.40
2022-12-23T09:18:38.574Z,5.55
2022-12-23T09:21:12.384Z,2.63
2022-12-23T09:23:39.201Z,6.25
2022-12-23T09:26:06.944Z,1.98
2022-12-23T09:28:34.111Z,1.30
2022-12-23T09:31:09.062Z,7.22
2022-12-23T09:33:36.292Z,1.52
2022-12-23T09:36:04.265Z,5.32
2022-12-23T09:38:31.430Z,3.40
2022-12-23T09:41:29.187Z,2.92
2022-12-23T09:44:24.013Z,1.13
2022-12-23T09:46:55.914Z,3.15
2022-12-23T09:49:24.157Z,3.30
2022-12-23T09:51:55.858Z,2.10
2022-12-23T09:54:26.015Z,7.32
2022-12-23T09:57:00.730Z,6.43
2022-12-23T09:59:30.411Z,6.57
2022-12-23T10:02:06.318Z,5.28
2022-12-23T10:04:55.382Z,4.97
2022-12-23T10:07:54.279Z,10.00
2022-12-23T10:10:42.586Z,8.15
2022-12-23T10:13:24.460Z,12.90
2022-12-23T10:15:53.109Z,15.27
2022-12-23T10:18:56.296Z,14.88
2022-12-23T10:21:26.819Z,13.23
2022-12-23T10:23:55.195Z,17.10
2022-12-23T10:26:29.026Z,14.13
2022-12-23T10:29:26.163Z,9.52
2022-12-23T10:32:23.301Z,17.58
2022-12-23T10:35:06.680Z,16.10
2022-12-23T10:37:36.130Z,9.75
2022-12-23T10:40:56.867Z,10.63
2022-12-23T10:43:38.123Z,17.00
2022-12-23T10:46:31.351Z,10.10
2022-12-23T10:49:17.152Z,7.25
2022-12-23T10:51:52.913Z,7.38
2022-12-23T10:54:42.616Z,7.40
2022-12-23T10:57:09.749Z,7.75
2022-12-23T10:59:37.031Z,4.65
2022-12-23T11:02:12.973Z,8.20
2022-12-23T11:04:48.317Z,7.03
2022-12-23T11:07:49.635Z,8.55
2022-12-23T11:10:19.528Z,8.73
2022-12-23T11:12:51.818Z,12.65
2022-12-23T11:15:34.641Z,7.57
2022-12-23T11:18:13.493Z,6.28
2022-12-23T11:20:43.336Z,13.57
2022-12-23T11:23:30.959Z,10.80
2022-12-23T11:26:10.030Z,8.95
2022-12-23T11:28:40.441Z,11.05
2022-12-23T11:31:14.495Z,12.20
2022-12-23T11:33:49.740Z,9.93
2022-12-23T11:36:24.088Z,8.00
2022-12-23T11:38:59.721Z,14.73
2022-12-23T11:41:29.510Z,15.10
2022-12-23T11:44:04.001Z,20.00
2022-12-23T11:46:33.647Z,12.68
2022-12-23T11:49:17.125Z,13.10
2022-12-23T11:51:47.537Z,11.52
2022-12-23T11:54:21.034Z,15.60
2022-12-23T11:56:52.897Z,8.98
2022-12-23T11:59:41.989Z,12.02
2022-12-23T12:02:26.706Z,15.52
2022-12-23T12:04:59.672Z,13.88
2022-12-23T12:07:27.275Z,13.13
2022-12-23T12:09:58.218Z,11.65
2022-12-23T12:12:26.488Z,14.45
2022-12-23T12:14:56.732Z,9.05
2022-12-23T12:17:41.149Z,15.32
2022-12-23T12:20:45.206Z,14.15
2022-12-23T12:23:30.652Z,18.98
2022-12-23T12:26:02.780Z,21.45
2022-12-23T12:28:37.200Z,19.73
2022-12-23T12:31:21.497Z,23.25
2022-12-23T12:33:54.900Z,17.65
2022-12-23T12:36:38.056Z,18.83
2022-12-23T12:39:05.326Z,24.65
2022-12-23T12:41:38.539Z,15.55
2022-12-23T12:44:32.258Z,14.68
2022-12-23T12:47:28.513Z,12.50
2022-12-23T12:50:33.970Z,15.98
2022-12-23T12:53:18.828Z,22.23
2022-12-23T12:55:52.498Z,25.05
2022-12-23T12:58:22.627Z,15.30
2022-12-23T13:01:04.311Z,15.32
2022-12-23T13:03:58.362Z,25.73
2022-12-23T13:06:38.622Z,20.92
2022-12-23T13:09:17.046Z,17.05
2022-12-23T13:11:54.211Z,21.85
2022-12-23T13:14:30.304Z,13.80
2022-12-23T13:17:21.091Z,21.88
2022-12-23T13:20:09.463Z,15.63
2022-12-23T13:22:38.679Z,15.23
2022-12-23T13:25:23.420Z,12.65
2022-12-23T13:27:57.940Z,12.27
2022-12-23T13:30:30.876Z,16.58
2022-12-23T13:33:15.564Z,14.70
2022-12-23T13:36:20.605Z,17.88
2022-12-23T13:39:02.433Z,21.17
2022-12-23T13:41:45.051Z,23.30
2022-12-23T13:44:15.210Z,20.65
2022-12-23T13:47:09.562Z,19.88
2022-12-23T13:49:58.049Z,23.60
2022-12-23T13:52:48.446Z,17.40
2022-12-23T13:55:47.902Z,21.30
2022-12-23T13:58:22.726Z,23.63
2022-12-23T14:01:12.690Z,20.27
2022-12-23T14:03:40.484Z,21.38
2022-12-23T14:06:25.727Z,27.67
2022-12-23T14:08:54.598Z,21.42
2022-12-23T14:11:26.295Z,22.85
2022-12-23T14:14:02.928Z,18.40
2022-12-23T14:16:41.643Z,23.73
2022-12-23T14:19:42.814Z,25.30
2022-12-23T14:22:18.545Z,16.95
2022-12-23T14:25:16.103Z,19.80
2022-12-23T14:27:57.756Z,18.25
2022-12-23T14:30:41.349Z,23.75
2022-12-23T14:33:31.369Z,24.02
2022-12-23T14:36:14.536Z,21.52
2022-12-23T14:38:41.584Z,16.13
2022-12-23T14:41:53.756Z,19.15
2022-12-23T14:44:35.709Z,19.30
2022-12-23T14:47:03.690Z,18.27
2022-12-23T14:49:40.454Z,28.52
2022-12-23T14:52:40.803Z,23.17
2022-12-23T14:55:31.623Z,23.15
2022-12-23T14:58:12.487Z,24.52
2022-12-23T15:00:47.157Z,20.35
2022-12-23T15:03:14.687Z,21.55
2022-12-23T15:05:42.963Z,21.00
2022-12-23T15:08:35.652Z,20.98
2022-12-23T15:11:03.095Z,26.35
2022-12-23T15:13:31.237Z,23.08
2022-12-23T15:16:01.666Z,20.52
2022-12-23T15:18:29.424Z,18.70
2022-12-23T15:21:00.346Z,22.45
2022-12-23T15:23:27.321Z,17.88
2022-12-23T15:25:58.882Z,15.98
2022-12-23T15:28:39.935Z,18.27
2022-12-23T15:31:13.358Z,25.70
2022-12-23T15:36:36.877Z,21.80
2022-12-23T15:39:10.340Z,20.42
2022-12-23T15:41:48.387Z,18.25
2022-12-23T15:44:22.180Z,17.98
2022-12-23T15:46:50.628Z,16.42
2022-12-23T15:49:19.760Z,20.27
2022-12-23T15:52:08.850Z,23.77
2022-12-23T15:54:52.393Z,23.60
2022-12-23T15:57:22.519Z,16.77
2022-12-23T15:59:49.826Z,21.55
2022-12-23T16:02:59.142Z,27.83
2022-12-23T16:05:09.449Z,43.45
2022-12-23T16:07:40.363Z,32.47
2022-12-23T16:10:21.070Z,36.72
2022-12-23T16:12:52.142Z,25.50
2022-12-23T16:15:28.505Z,30.05
2022-12-23T16:18:13.754Z,25.15
2022-12-23T16:20:45.707Z,29.45
2022-12-23T16:23:13.673Z,34.03
2022-12-23T16:25:50.160Z,33.70
2022-12-23T16:28:29.809Z,35.42
2022-12-23T16:30:58.628Z,36.67
2022-12-23T16:33:38.813Z,44.35
2022-12-23T16:36:37.910Z,46.50
2022-12-23T16:39:07.534Z,38.05
2022-12-23T16:41:35.353Z,35.22
2022-12-23T16:44:03.072Z,69.85
2022-12-23T16:46:36.342Z,62.03
2022-12-23T16:49:06.345Z,49.05
2022-12-23T16:51:34.396Z,38.15
2022-12-23T16:54:02.198Z,44.70
2022-12-23T16:56:35.519Z,39.30
2022-12-23T16:59:02.546Z,53.00
2022-12-23T17:01:32.340Z,34.88
2022-12-23T17:03:59.236Z,39.53
2022-12-23T17:06:26.744Z,41.30
2022-12-23T17:08:54.065Z,42.53
2022-12-23T17:11:25.616Z,53.38
2022-12-23T17:13:56.647Z,45.03
2022-12-23T17:16:28.431Z,48.78
2022-12-23T17:18:55.314Z,57.85
2022-12-23T17:21:25.539Z,50.25
2022-12-23T17:24:02.876Z,42.42
2022-12-23T17:26:29.700Z,39.90
2022-12-23T17:28:56.579Z,37.65
2022-12-23T17:31:26.974Z,29.23
2022-12-23T17:33:54.635Z,33.30
2022-12-23T17:36:22.149Z,25.73
2022-12-23T17:38:49.111Z,30.60
2022-12-23T17:41:29.444Z,24.20
2022-12-23T17:43:57.120Z,34.17
2022-12-23T17:46:24.544Z,33.75
2022-12-23T17:48:51.523Z,30.83
2022-12-23T17:51:21.108Z,16.10
2022-12-23T17:53:55.131Z,22.17
2022-12-23T17:56:26.670Z,21.98
2022-12-23T17:58:53.499Z,15.05
2022-12-23T18:01:32.350Z,25.15
2022-12-23T18:04:00.402Z,26.95
2022-12-23T18:06:28.912Z,22.15
2022-12-23T18:08:59.119Z,12.50
2022-12-23T18:11:44.202Z,18.33
2022-12-23T18:14:23.158Z,14.75
2022-12-23T18:16:50.084Z,20.10
2022-12-23T18:19:19.703Z,15.63
2022-12-23T18:21:47.377Z,15.90
2022-12-23T18:24:14.229Z,11.60
2022-12-23T18:26:41.079Z,17.73
2022-12-23T18:29:08.141Z,12.32
2022-12-23T18:31:37.091Z,12.68
2022-12-23T18:34:04.759Z,11.80
2022-12-23T18:36:34.051Z,9.07
2022-12-23T18:39:01.003Z,15.05
2022-12-23T18:41:28.317Z,7.70
2022-12-23T18:43:55.578Z,10.88
2022-12-23T18:46:22.632Z,9.23
2022-12-23T18:48:49.678Z,11.02
2022-12-23T18:51:18.644Z,11.60
2022-12-23T18:53:47.027Z,14.75
2022-12-23T18:56:15.239Z,9.02
2022-12-23T18:58:42.483Z,11.70
2022-12-23T19:01:14.125Z,16.25
2022-12-23T19:03:41.521Z,10.85
2022-12-23T19:06:11.905Z,11.27
2022-12-23T19:08:39.679Z,14.50
2022-12-23T19:11:17.333Z,13.70
2022-12-23T19:13:45.234Z,11.68
2022-12-23T19:16:17.660Z,7.90
2022-12-23T19:18:45.782Z,9.18
2022-12-23T19:21:12.884Z,16.90
2022-12-23T19:23:41.267Z,12.30
2022-12-23T19:26:14.375Z,4.95
2022-12-23T19:28:42.113Z,9.80
2022-12-23T19:31:11.278Z,12.35
2022-12-23T19:33:39.278Z,8.52
2022-12-23T19:36:14.389Z,8.30
2022-12-23T19:38:41.539Z,7.90
2022-12-23T19:41:09.273Z,8.38
2022-12-23T19:43:38.353Z,6.10
2022-12-23T19:46:08.366Z,12.13
2022-12-23T19:48:36.329Z,7.90
2022-12-23T19:51:04.779Z,11.23
2022-12-23T19:53:32.425Z,9.15
2022-12-23T19:56:05.751Z,12.27
2022-12-23T19:58:35.654Z,9.00
2022-12-23T20:01:10.040Z,7.82
2022-12-23T20:03:38.011Z,9.93
2022-12-23T20:06:06.249Z,4.00
2022-12-23T20:08:34.783Z,2.17
2022-12-23T20:11:06.643Z,6.70
2022-12-23T20:13:34.264Z,8.15
2022-12-23T20:16:01.333Z,5.85
2022-12-23T20:18:28.741Z,7.78
2022-12-23T20:20:55.630Z,13.40
2022-12-23T20:23:22.757Z,12.95
2022-12-23T20:25:49.878Z,13.27
2022-12-23T20:28:17.036Z,14.30
2022-12-23T20:30:43.976Z,11.57
2022-12-23T20:33:10.788Z,7.28
2022-12-23T20:35:37.808Z,10.98
2022-12-23T20:38:04.559Z,10.18
2022-12-23T20:40:31.364Z,5.97
2022-12-23T20:43:01.216Z,18.70
2022-12-23T20:45:28.028Z,11.27
2022-12-23T20:47:54.800Z,11.85
2022-12-23T20:50:21.637Z,4.78
2022-12-23T20:52:48.482Z,9.43
2022-12-23T20:55:15.279Z,12.98
2022-12-23T20:57:45.164Z,8.40
2022-12-23T21:00:13.048Z,13.75
2022-12-23T21:02:40.882Z,12.10
2022-12-23T21:05:08.190Z,9.23
2022-12-23T21:07:35.000Z,8.77
2022-12-23T21:10:01.882Z,10.85
2022-12-23T21:12:28.684Z,8.63
2022-12-23T21:14:55.475Z,8.98
2022-12-23T21:17:23.925Z,7.55
2022-12-23T21:19:50.759Z,8.90
2022-12-23T21:22:17.507Z,10.98
2022-12-23T21:24:44.447Z,13.95
2022-12-23T21:27:11.347Z,16.63
2022-12-23T21:29:38.112Z,9.65
2022-12-23T21:32:04.912Z,9.30
2022-12-23T21:34:31.739Z,14.55
2022-12-23T21:36:58.577Z,15.02
2022-12-23T21:39:26.048Z,8.00
2022-12-23T21:41:53.271Z,15.38
2022-12-23T21:44:20.024Z,14.38
2022-12-23T21:46:46.888Z,14.25
2022-12-23T21:49:13.750Z,13.07
2022-12-23T21:51:41.715Z,13.40
2022-12-23T21:54:12.145Z,14.75
2022-12-23T21:56:40.752Z,14.77
2022-12-23T21:59:16.252Z,5.60
2022-12-23T22:01:43.758Z,6.15
2022-12-23T22:04:11.376Z,9.00
2022-12-23T22:06:43.770Z,6.40
2022-12-23T22:09:15.934Z,13.52
2022-12-23T22:11:43.564Z,9.32
2022-12-23T22:14:13.445Z,17.92
2022-12-23T22:16:40.516Z,9.57
2022-12-23T22:19:09.457Z,13.52
2022-12-23T22:21:36.684Z,9.35
2022-12-23T22:24:04.058Z,8.25
2022-12-23T22:26:32.740Z,11.20
2022-12-23T22:29:01.822Z,8.00
2022-12-23T22:31:31.361Z,16.13
2022-12-23T22:33:58.885Z,15.02
2022-12-23T22:36:26.064Z,14.90
2022-12-23T22:38:55.538Z,19.08
2022-12-23T22:41:23.675Z,15.55
2022-12-23T22:43:50.455Z,9.02
2022-12-23T22:46:18.761Z,11.07
2022-12-23T22:48:46.602Z,11.93
2022-12-23T22:51:22.418Z,12.85
2022-12-23T22:53:49.228Z,8.63
2022-12-23T22:56:18.587Z,8.30
2022-12-23T22:58:45.666Z,19.65
2022-12-23T23:01:25.839Z,8.20
2022-12-23T23:03:57.634Z,19.45
2022-12-23T23:06:32.917Z,20.92
2022-12-23T23:09:00.349Z,15.93
2022-12-23T23:11:28.081Z,26.88
2022-12-23T23:13:55.741Z,22.98
2022-12-23T23:16:23.362Z,14.48
2022-12-23T23:18:50.987Z,24.17
2022-12-23T23:21:17.868Z,27.35
2022-12-23T23:23:45.485Z,16.45
2022-12-23T23:26:13.212Z,24.67
2022-12-23T23:28:40.760Z,18.67
2022-12-23T23:33:55.646Z,12.90
2022-12-23T23:36:22.545Z,9.82
2022-12-23T23:38:49.401Z,12.30
2022-12-23T23:41:20.671Z,18.98
2022-12-23T23:43:49.587Z,15.95
2022-12-23T23:46:16.492Z,22.33
2022-12-23T23:48:43.301Z,22.17
2022-12-23T23:51:10.225Z,23.63
2022-12-23T23:53:36.988Z,27.55
2022-12-23T23:56:06.403Z,13.35
2022-12-23T23:58:35.161Z,13.85
